Time;durP1;ratioP1;P1;durP2;ratioP2;P2;SDS_P1;SDS_P2;PMS_P1;PMS_P2;Temp;Humidity;BMP_temperature;BMP_pressure;BME280_temperature;BME280_humidity;BME280_pressure;Samples;Min_cycle;Max_cycle;Signal;HPM_P1;HPM_P2
2022/01/26 00:00:55;;;;;;;6.25;4.90;;;;;;;16.94;43.96;103287.84;5078197;28;20024;-51
2022/01/26 00:06:06;;;;;;;5.72;5.13;;;;;;;16.89;43.82;103273.84;5100251;28;20036;-47
2022/01/26 00:08:32;;;;;;;6.30;5.18;;;;;;;16.91;43.91;103282.69;5098402;28;20477;-48
2022/01/26 00:10:58;;;;;;;7.55;5.25;;;;;;;16.89;43.67;103281.91;5101831;28;20039;-49
2022/01/26 00:13:23;;;;;;;6.13;4.97;;;;;;;16.89;43.85;103284.59;5098951;28;20024;-51
2022/01/26 00:15:48;;;;;;;6.25;5.55;;;;;;;16.89;43.95;103297.19;5100011;28;20032;-48
2022/01/26 00:18:15;;;;;;;5.80;5.18;;;;;;;16.89;43.78;103284.59;5084138;28;20084;-51
2022/01/26 00:20:50;;;;;;;6.95;5.45;;;;;;;16.89;43.74;103275.69;5102369;28;20024;-52
2022/01/26 00:28:31;;;;;;;6.28;5.35;;;;;;;16.87;43.75;103269.56;5102833;28;20027;-50
2022/01/26 00:38:37;;;;;;;7.50;5.68;;;;;;;16.82;43.80;103269.84;5102208;28;20468;-50
2022/01/26 00:41:09;;;;;;;7.05;6.28;;;;;;;16.81;43.78;103264.56;5098693;28;20020;-48
2022/01/26 00:43:35;;;;;;;7.05;5.45;;;;;;;16.80;43.83;103269.06;5097715;28;20035;-46
2022/01/26 00:46:03;;;;;;;6.55;5.47;;;;;;;16.81;43.76;103267.25;5101387;28;20741;-48
2022/01/26 00:48:31;;;;;;;6.72;5.15;;;;;;;16.78;43.66;103252.19;5093684;28;20079;-50
2022/01/26 00:51:00;;;;;;;6.55;5.50;;;;;;;16.79;43.33;103253.06;5095636;28;20039;-49
2022/01/26 00:53:31;;;;;;;6.50;5.78;;;;;;;16.78;43.96;103245.94;5098248;28;20023;-52
2022/01/26 00:55:57;;;;;;;7.57;5.70;;;;;;;16.78;43.44;103243.25;5098502;28;20036;-50
2022/01/26 00:58:22;;;;;;;6.88;5.68;;;;;;;16.78;43.73;103245.94;5099895;28;20032;-51
2022/01/26 01:00:47;;;;;;;6.28;5.60;;;;;;;16.76;43.70;103239.81;5098751;28;20028;-47
2022/01/26 01:03:13;;;;;;;6.72;5.82;;;;;;;16.75;43.76;103236.28;5094544;28;20036;-47
2022/01/26 01:05:48;;;;;;;6.97;6.05;;;;;;;16.73;43.69;103228.28;5094432;28;20063;-50
2022/01/26 01:08:16;;;;;;;7.25;5.70;;;;;;;16.73;43.63;103228.28;5101187;28;20028;-52
2022/01/26 01:10:45;;;;;;;6.35;5.15;;;;;;;16.72;43.66;103228.38;5098776;28;20028;-50
2022/01/26 01:13:15;;;;;;;6.65;5.65;;;;;;;16.73;43.63;103235.50;5101138;28;20035;-50
2022/01/26 01:15:41;;;;;;;6.63;5.60;;;;;;;16.71;43.62;103240.94;5082713;28;20031;-48
2022/01/26 01:18:18;;;;;;;7.05;5.60;;;;;;;16.72;43.48;103244.47;5098085;28;20039;-51
2022/01/26 01:21:06;;;;;;;6.88;5.97;;;;;;;16.70;43.56;103241.91;5099495;28;20073;-47
2022/01/26 01:26:39;;;;;;;6.60;5.47;;;;;;;16.69;43.63;103242.88;5054613;28;20036;-49
2022/01/26 01:31:49;;;;;;;7.13;5.97;;;;;;;16.67;43.71;103231.34;5093696;28;20041;-51
2022/01/26 01:34:17;;;;;;;5.95;5.35;;;;;;;16.65;43.58;103217.16;5096831;28;20027;-49
2022/01/26 01:36:45;;;;;;;6.00;5.25;;;;;;;16.66;43.60;103226.09;5080367;28;20031;-46
2022/01/26 01:39:11;;;;;;;6.33;5.20;;;;;;;16.60;43.68;103194.22;5099030;28;20028;-51
2022/01/26 01:41:39;;;;;;;6.85;5.78;;;;;;;16.64;43.66;103204.66;5100037;28;20097;-47
2022/01/26 01:44:06;;;;;;;6.35;5.38;;;;;;;16.63;43.68;103196.72;5075558;28;20576;-50
2022/01/26 01:46:32;;;;;;;6.47;5.30;;;;;;;16.61;43.54;103187.88;5078466;28;20028;-51
2022/01/26 01:48:57;;;;;;;6.13;5.28;;;;;;;16.58;43.53;103191.66;5096859;28;20039;-50
2022/01/26 01:51:31;;;;;;;6.90;5.55;;;;;;;16.64;43.55;103193.06;5100646;28;20032;-49
2022/01/26 01:53:56;;;;;;;6.32;5.63;;;;;;;16.63;43.63;103211.00;5100577;28;20048;-48
2022/01/26 01:56:24;;;;;;;6.55;5.55;;;;;;;16.58;43.77;103202.38;5100464;28;20030;-50
2022/01/26 01:58:50;;;;;;;6.88;6.10;;;;;;;16.60;43.65;103200.47;5091149;28;20058;-49
2022/01/26 02:01:15;;;;;;;5.93;5.32;;;;;;;16.59;43.73;103201.41;5099748;28;20032;-51
2022/01/26 02:03:40;;;;;;;6.15;5.50;;;;;;;16.58;43.60;103198.84;5080768;28;20046;-47
2022/01/26 02:06:05;;;;;;;6.78;5.70;;;;;;;16.58;43.62;103191.66;5081529;28;20024;-48
2022/01/26 02:08:31;;;;;;;7.28;5.70;;;;;;;16.56;43.71;103181.94;5098896;28;20056;-46
2022/01/26 02:10:56;;;;;;;6.32;5.30;;;;;;;16.55;43.60;103181.09;5072054;28;20539;-49
2022/01/26 02:13:38;;;;;;;6.63;5.47;;;;;;;16.55;43.61;103182.91;5098211;28;20376;-50
2022/01/26 02:53:57;;;;;;;5.88;5.18;;;;;;;16.42;43.49;103166.72;5103630;28;20049;-48
2022/01/26 03:04:31;;;;;;;6.35;4.93;;;;;;;16.39;43.61;103162.41;5095425;28;20048;-48
2022/01/26 03:07:16;;;;;;;5.18;4.68;;;;;;;16.38;43.64;103168.72;5102742;28;20107;-51
2022/01/26 03:09:50;;;;;;;6.50;4.88;;;;;;;16.38;43.54;103165.19;5101872;28;20050;-48
2022/01/26 03:12:18;;;;;;;5.97;5.15;;;;;;;16.37;43.48;103158.97;5102088;28;20057;-49
2022/01/26 03:19:47;;;;;;;6.55;4.88;;;;;;;16.35;43.50;103142.06;5081172;28;20036;-48
2022/01/26 03:35:42;;;;;;;5.32;4.82;;;;;;;16.33;43.34;103135.09;5095580;28;20049;-50
2022/01/26 03:38:16;;;;;;;5.63;4.63;;;;;;;16.33;43.45;103135.09;5101524;28;20054;-50
2022/01/26 03:40:42;;;;;;;4.82;4.20;;;;;;;16.30;43.41;103136.13;5101760;28;20024;-52
2022/01/26 03:43:08;;;;;;;5.55;5.00;;;;;;;16.31;43.46;103121.78;5079793;28;20088;-51
2022/01/26 03:45:33;;;;;;;6.35;5.05;;;;;;;16.26;43.47;103105.09;5094703;28;20044;-52
2022/01/26 03:47:58;;;;;;;5.88;4.93;;;;;;;16.25;43.43;103120.34;5099005;28;20508;-52
2022/01/26 03:50:25;;;;;;;5.35;4.53;;;;;;;16.28;43.39;103135.38;5099653;28;20365;-52
2022/01/26 03:52:50;;;;;;;5.85;4.88;;;;;;;16.29;43.38;103128.19;5102141;28;20060;-50
2022/01/26 03:55:15;;;;;;;6.05;4.78;;;;;;;16.27;43.41;103109.53;5102389;28;20027;-50
2022/01/26 03:57:41;;;;;;;6.20;5.00;;;;;;;16.27;43.48;103117.56;5098481;28;20020;-48
2022/01/26 04:00:08;;;;;;;6.38;4.88;;;;;;;16.27;43.51;103122.03;5100093;28;20043;-52
2022/01/26 04:02:34;;;;;;;4.70;4.20;;;;;;;16.26;43.43;103129.25;5102024;28;20028;-47
2022/01/26 04:05:02;;;;;;;5.07;4.13;;;;;;;16.26;43.35;103129.25;5102215;28;20067;-50
2022/01/26 04:07:27;;;;;;;4.65;3.78;;;;;;;16.26;43.42;103129.25;5095883;28;20071;-48
2022/01/26 04:09:57;;;;;;;5.82;5.10;;;;;;;16.26;43.44;103123.88;5099126;28;20038;-49
2022/01/26 04:12:23;;;;;;;5.60;4.70;;;;;;;16.25;43.82;103128.38;5098975;28;20246;-52
2022/01/26 04:14:54;;;;;;;5.50;4.53;;;;;;;16.25;43.38;103147.16;5100509;28;20050;-49
2022/01/26 04:17:20;;;;;;;4.85;4.05;;;;;;;16.25;43.03;103157.06;5097931;28;20032;-49
2022/01/26 04:19:50;;;;;;;4.68;3.95;;;;;;;16.25;43.40;103165.09;5102649;28;20053;-51
2022/01/26 04:22:21;;;;;;;6.03;4.35;;;;;;;16.24;43.59;103168.75;5101799;28;20038;-49
2022/01/26 04:24:51;;;;;;;6.07;4.53;;;;;;;16.18;43.24;103166.44;5102184;28;20036;-48
2022/01/26 04:29:57;;;;;;;6.15;4.82;;;;;;;16.22;43.38;103163.47;5101118;28;20044;-47
2022/01/26 04:32:23;;;;;;;4.53;4.13;;;;;;;16.23;43.35;103150.94;5099360;28;20125;-47
2022/01/26 04:34:49;;;;;;;5.07;4.07;;;;;;;16.21;43.24;103151.00;5101474;28;20044;-49
2022/01/26 04:40:03;;;;;;;4.63;4.00;;;;;;;16.20;43.53;103133.19;5095852;28;20040;-46
2022/01/26 04:42:48;;;;;;;5.28;4.32;;;;;;;16.17;43.35;103128.00;5097132;28;20063;-46
2022/01/26 04:45:14;;;;;;;4.68;3.97;;;;;;;16.18;43.36;103124.38;5100370;28;20042;-49
2022/01/26 04:47:40;;;;;;;4.47;3.88;;;;;;;16.14;43.40;103103.16;5080514;28;20024;-50
2022/01/26 04:50:08;;;;;;;4.68;3.95;;;;;;;16.17;43.28;103105.66;5101190;28;20127;-48
2022/01/26 04:52:33;;;;;;;5.07;4.10;;;;;;;16.17;43.29;103108.34;5095531;28;20031;-49
2022/01/26 04:54:59;;;;;;;5.30;4.20;;;;;;;16.15;43.33;103091.50;5099134;28;20024;-48
2022/01/26 04:57:24;;;;;;;4.55;4.07;;;;;;;16.11;43.19;103076.56;5095089;28;20062;-48
2022/01/26 04:59:50;;;;;;;5.15;4.30;;;;;;;16.16;43.23;103082.47;5101002;28;20036;-48
2022/01/26 05:02:15;;;;;;;5.35;4.53;;;;;;;16.14;43.35;103079.91;5099596;28;20645;-50
2022/01/26 05:04:40;;;;;;;5.47;4.10;;;;;;;16.14;43.27;103071.84;5093878;28;20049;-47
2022/01/26 05:07:06;;;;;;;5.10;4.20;;;;;;;16.14;43.29;103069.19;5092526;28;20437;-49
2022/01/26 05:09:31;;;;;;;5.25;4.00;;;;;;;16.14;43.05;103070.97;5094141;28;20031;-48
2022/01/26 05:11:57;;;;;;;4.38;3.97;;;;;;;16.08;43.32;103056.13;5095794;28;20067;-49
2022/01/26 05:14:22;;;;;;;5.22;4.22;;;;;;;16.14;43.33;103073.66;5101811;28;20028;-48
2022/01/26 05:16:48;;;;;;;4.25;3.83;;;;;;;16.14;43.30;103068.28;5096022;28;20934;-48
2022/01/26 05:19:13;;;;;;;5.60;4.32;;;;;;;16.13;43.23;103043.28;5100227;28;20385;-46
2022/01/26 05:21:38;;;;;;;4.50;4.05;;;;;;;16.12;43.29;103040.69;5098843;28;20046;-47
2022/01/26 05:24:04;;;;;;;4.68;4.18;;;;;;;16.12;43.20;103057.66;5101182;28;20020;-52
2022/01/26 05:26:29;;;;;;;4.25;3.60;;;;;;;16.10;43.29;103056.91;5099341;28;20032;-48
2022/01/26 05:28:55;;;;;;;5.00;4.28;;;;;;;16.11;43.21;103049.72;5083302;28;20105;-49
2022/01/26 05:31:20;;;;;;;4.72;4.00;;;;;;;16.07;43.40;103040.13;5098003;28;20073;-49
2022/01/26 05:33:45;;;;;;;4.90;3.83;;;;;;;16.11;43.24;103044.34;5097878;28;20038;-51
2022/01/26 05:36:11;;;;;;;4.88;3.78;;;;;;;16.08;43.42;103047.22;5098427;28;20092;-49
2022/01/26 05:38:36;;;;;;;4.78;3.65;;;;;;;16.10;43.27;103061.38;5092266;28;20036;-51
2022/01/26 05:41:02;;;;;;;3.85;3.53;;;;;;;16.12;43.31;103062.16;5099346;28;20040;-49
2022/01/26 05:43:29;;;;;;;4.30;3.90;;;;;;;16.10;43.47;103069.44;5083540;28;20043;-49
2022/01/26 05:45:58;;;;;;;4.85;4.07;;;;;;;16.11;43.25;103071.19;5093307;28;20024;-48
2022/01/26 05:48:24;;;;;;;3.88;3.35;;;;;;;16.09;43.68;103076.63;5092509;28;20036;-50
2022/01/26 05:50:52;;;;;;;5.50;4.20;;;;;;;16.10;43.31;103091.81;5093679;28;20062;-49
2022/01/26 05:53:20;;;;;;;4.57;3.83;;;;;;;16.10;43.24;103075.69;5096022;28;20079;-49
2022/01/26 05:55:50;;;;;;;4.28;3.65;;;;;;;16.10;43.20;103061.38;5099133;28;20032;-47
2022/01/26 05:58:15;;;;;;;4.35;3.80;;;;;;;16.11;43.33;103055.94;5074981;28;20031;-49
2022/01/26 06:00:40;;;;;;;4.13;3.63;;;;;;;16.11;43.21;103055.94;5097287;28;20020;-51
2022/01/26 06:03:06;;;;;;;4.22;3.78;;;;;;;16.12;43.35;103056.81;5100246;28;20100;-51
2022/01/26 06:05:31;;;;;;;3.85;3.45;;;;;;;16.12;43.20;103057.66;5094010;28;20681;-48
2022/01/26 06:07:56;;;;;;;4.20;3.60;;;;;;;16.12;43.59;103051.44;5095045;28;20492;-50
2022/01/26 06:10:21;;;;;;;4.32;3.75;;;;;;;16.12;43.20;103071.06;5099477;28;20036;-50
2022/01/26 06:12:47;;;;;;;4.65;3.88;;;;;;;16.11;43.24;103055.94;5100262;28;20032;-53
2022/01/26 06:15:12;;;;;;;4.03;3.47;;;;;;;16.12;43.32;103060.34;5100791;28;20028;-46
2022/01/26 06:17:37;;;;;;;4.78;3.72;;;;;;;16.11;43.24;103061.31;5090231;28;20031;-47
2022/01/26 06:20:03;;;;;;;4.13;3.42;;;;;;;16.13;43.21;103067.44;5082349;28;20021;-49
2022/01/26 06:22:29;;;;;;;5.22;4.10;;;;;;;16.14;43.11;103062.91;5100301;28;20380;-47
2022/01/26 06:24:56;;;;;;;4.78;3.75;;;;;;;16.11;43.04;103049.72;5095511;28;20694;-49
2022/01/26 06:27:21;;;;;;;3.95;3.50;;;;;;;16.15;43.29;103061.97;5099155;28;20035;-46
2022/01/26 06:29:47;;;;;;;5.25;3.72;;;;;;;16.15;43.19;103046.75;5099090;28;20024;-51
2022/01/26 06:32:12;;;;;;;5.07;4.13;;;;;;;16.15;43.21;103052.09;5096967;28;20020;-48
2022/01/26 06:34:39;;;;;;;3.90;3.50;;;;;;;16.15;43.20;103054.78;5096433;28;20032;-49
2022/01/26 06:37:06;;;;;;;3.95;3.33;;;;;;;16.18;43.22;103048.34;5097295;28;20062;-47
2022/01/26 06:39:31;;;;;;;5.28;3.88;;;;;;;16.18;43.44;103042.97;5088584;28;20020;-48
2022/01/26 06:41:57;;;;;;;4.97;4.10;;;;;;;16.20;43.30;103049.97;5091601;28;20040;-49
2022/01/26 06:44:33;;;;;;;4.90;4.00;;;;;;;16.20;43.32;103038.38;5089000;28;20024;-47
2022/01/26 06:49:37;;;;;;;4.68;4.05;;;;;;;16.21;43.34;103045.47;5097402;28;20028;-51
2022/01/26 06:52:03;;;;;;;5.28;3.75;;;;;;;16.22;43.42;103048.03;5095609;28;20038;-47
2022/01/26 06:54:28;;;;;;;4.45;3.92;;;;;;;16.23;43.48;103043.56;5092225;28;20032;-48
2022/01/26 06:56:54;;;;;;;6.20;5.03;;;;;;;16.23;43.37;103059.66;5096544;28;20044;-48
2022/01/26 06:59:24;;;;;;;4.47;3.88;;;;;;;16.23;43.42;103065.03;5074740;28;20066;-47
2022/01/26 07:01:50;;;;;;;4.85;4.22;;;;;;;16.26;43.54;103078.25;5095101;28;20063;-47
2022/01/26 07:04:15;;;;;;;5.20;4.25;;;;;;;16.26;43.56;103070.19;5095175;28;20040;-48
2022/01/26 07:06:40;;;;;;;5.55;4.38;;;;;;;16.25;43.62;103072.00;5086888;28;20552;-48
2022/01/26 07:09:06;;;;;;;4.97;4.40;;;;;;;16.29;43.58;103075.38;5076085;28;20033;-47
2022/01/26 07:11:31;;;;;;;5.32;4.35;;;;;;;16.25;43.55;103055.06;5090707;28;20048;-50
2022/01/26 07:14:00;;;;;;;7.10;5.18;;;;;;;16.31;42.85;103051.09;5095657;28;20048;-49
2022/01/26 07:21:54;;;;;;;6.60;4.63;;;;;;;16.32;43.71;103047.47;5092144;28;20039;-50
2022/01/26 07:24:19;;;;;;;5.25;4.47;;;;;;;16.30;43.65;103049.38;5089110;28;20024;-52
2022/01/26 07:26:46;;;;;;;5.38;4.68;;;;;;;16.34;43.67;103077.75;5091444;28;20063;-54
2022/01/26 07:29:13;;;;;;;5.03;4.22;;;;;;;16.34;43.59;103075.94;5088082;28;20024;-53
2022/01/26 07:31:42;;;;;;;4.80;4.30;;;;;;;16.34;43.60;103067.88;5087031;28;20370;-54
2022/01/26 07:34:12;;;;;;;6.32;5.20;;;;;;;16.36;43.39;103073.16;5083848;28;20020;-52
2022/01/26 07:36:37;;;;;;;5.40;4.50;;;;;;;16.35;43.63;103080.31;5088464;28;20033;-51
2022/01/26 07:39:07;;;;;;;6.60;4.93;;;;;;;16.34;43.62;103085.81;5091567;28;20040;-48
2022/01/26 07:41:33;;;;;;;6.55;5.15;;;;;;;16.37;43.63;103091.84;5098037;28;20028;-53
2022/01/26 07:43:59;;;;;;;6.60;4.95;;;;;;;16.39;43.71;103091.72;5098182;28;20051;-53
2022/01/26 07:46:25;;;;;;;7.90;6.28;;;;;;;16.38;43.68;103087.34;5100155;28;20028;-54
2022/01/26 07:48:50;;;;;;;11.27;8.23;;;;;;;16.44;43.64;103097.69;5101292;28;20479;-54
2022/01/26 07:51:16;;;;;;;9.10;7.38;;;;;;;16.47;43.45;103106.38;5100301;28;20032;-53
2022/01/26 07:53:41;;;;;;;12.55;9.10;;;;;;;16.52;43.49;103110.59;5102555;28;20028;-52
2022/01/26 07:56:06;;;;;;;11.95;9.02;;;;;;;16.51;43.32;103109.75;5100981;28;20107;-50
2022/01/26 07:58:32;;;;;;;12.65;9.80;;;;;;;16.57;43.24;103114.72;5097692;28;20549;-54
2022/01/26 08:00:57;;;;;;;14.05;10.57;;;;;;;16.60;43.25;103101.09;5098067;28;20029;-53
2022/01/26 08:03:23;;;;;;;13.32;10.07;;;;;;;16.61;43.17;103089.41;5075176;28;20551;-52
2022/01/26 08:05:48;;;;;;;13.18;10.40;;;;;;;16.53;43.16;103080.97;5096714;28;20029;-50
2022/01/26 08:08:13;;;;;;;13.95;11.32;;;;;;;16.66;43.11;103098.00;5095788;28;20054;-51
2022/01/26 08:10:40;;;;;;;14.05;10.73;;;;;;;16.68;43.12;103092.53;5097948;28;20038;-51
2022/01/26 08:13:06;;;;;;;14.30;10.75;;;;;;;16.69;42.98;103094.25;5094150;28;20179;-49
2022/01/26 08:15:31;;;;;;;13.65;10.90;;;;;;;16.71;43.09;103093.19;5097135;28;20044;-52
2022/01/26 08:17:58;;;;;;;13.73;10.80;;;;;;;16.72;42.87;103086.88;5096195;28;20035;-52
2022/01/26 08:20:23;;;;;;;15.90;12.43;;;;;;;16.76;42.90;103090.22;5098797;28;20035;-53
2022/01/26 08:22:51;;;;;;;14.35;12.00;;;;;;;16.75;42.83;103093.88;5101224;28;20068;-51
2022/01/26 08:25:17;;;;;;;15.60;12.27;;;;;;;16.77;42.79;103086.56;5082956;28;20016;-49
2022/01/26 08:27:47;;;;;;;14.70;11.73;;;;;;;16.77;42.70;103086.56;5098335;28;20070;-52
2022/01/26 08:30:17;;;;;;;13.52;10.55;;;;;;;16.78;42.71;103092.81;5095704;28;20020;-49
2022/01/26 08:32:42;;;;;;;13.55;11.23;;;;;;;16.79;42.68;103087.34;5097836;28;20115;-51
2022/01/26 08:35:08;;;;;;;15.02;11.45;;;;;;;16.80;42.57;103080.16;5101952;28;20054;-51
2022/01/26 08:37:33;;;;;;;14.02;11.90;;;;;;;16.82;42.57;103075.53;5094495;28;20036;-53
2022/01/26 08:39:58;;;;;;;14.23;11.68;;;;;;;16.83;42.44;103072.75;5098256;28;20111;-53
2022/01/26 08:42:24;;;;;;;15.05;11.57;;;;;;;16.85;42.50;103073.50;5101322;28;20027;-48
2022/01/26 08:44:50;;;;;;;13.43;11.32;;;;;;;16.87;42.44;103073.41;5102163;28;20421;-53
2022/01/26 08:47:15;;;;;;;15.25;12.23;;;;;;;16.88;42.43;103069.75;5098557;28;20079;-48
2022/01/26 08:49:40;;;;;;;13.77;11.32;;;;;;;16.88;42.35;103078.69;5100599;28;20032;-52
2022/01/26 08:52:06;;;;;;;15.35;12.23;;;;;;;16.84;42.31;103074.47;5094549;28;20060;-50
2022/01/26 08:54:31;;;;;;;14.93;12.38;;;;;;;16.89;42.23;103082.22;5097465;28;20020;-53
2022/01/26 08:56:56;;;;;;;14.48;12.10;;;;;;;16.90;42.15;103092.84;5093697;28;20046;-49
2022/01/26 08:59:23;;;;;;;15.30;12.38;;;;;;;16.91;42.20;103093.75;5098844;28;20080;-52
2022/01/26 09:01:49;;;;;;;13.98;11.50;;;;;;;16.92;42.17;103093.63;5098764;28;20375;-51
2022/01/26 09:04:14;;;;;;;14.60;11.40;;;;;;;16.93;42.06;103100.72;5099786;28;20040;-50
2022/01/26 09:06:51;;;;;;;14.70;11.80;;;;;;;16.94;42.11;103098.91;5098036;28;20032;-50
2022/01/26 09:09:17;;;;;;;13.70;11.73;;;;;;;16.94;42.06;103091.69;5098643;28;20024;-50
2022/01/26 09:11:43;;;;;;;14.18;11.60;;;;;;;16.96;41.99;103086.22;5098417;28;20095;-50
2022/01/26 09:14:08;;;;;;;13.52;11.38;;;;;;;16.91;42.09;103075.78;5100221;28;20035;-53
2022/01/26 09:16:35;;;;;;;14.00;11.20;;;;;;;16.98;41.96;103077.09;5100487;28;20035;-52
2022/01/26 09:19:09;;;;;;;14.63;11.88;;;;;;;16.94;41.97;103070.19;5096967;28;20938;-53
2022/01/26 09:21:35;;;;;;;13.05;10.88;;;;;;;17.00;41.79;103071.63;5101531;28;20024;-52
2022/01/26 09:24:00;;;;;;;13.98;11.20;;;;;;;17.01;41.84;103069.78;5094901;28;20050;-53
2022/01/26 09:26:25;;;;;;;15.63;11.35;;;;;;;17.03;41.89;103079.47;5098838;28;20032;-52
2022/01/26 09:28:51;;;;;;;14.25;11.80;;;;;;;17.04;41.83;103072.28;5083036;28;20024;-52
2022/01/26 09:31:16;;;;;;;14.77;11.68;;;;;;;17.06;41.78;103067.66;5097188;28;20058;-52
2022/01/26 09:33:41;;;;;;;14.60;12.20;;;;;;;17.06;41.65;103063.13;5094633;28;20020;-51
2022/01/26 09:36:07;;;;;;;15.10;12.02;;;;;;;17.09;41.79;103067.44;5080580;28;20692;-51
2022/01/26 09:38:33;;;;;;;12.65;11.25;;;;;;;17.10;41.62;103064.66;5079195;28;20055;-53
2022/01/26 09:40:58;;;;;;;14.00;11.50;;;;;;;17.11;41.35;103073.56;5100645;28;20039;-51
2022/01/26 09:43:23;;;;;;;14.10;12.23;;;;;;;17.12;41.61;103081.56;5099959;28;20119;-52
2022/01/26 09:45:48;;;;;;;12.98;11.27;;;;;;;17.13;41.42;103087.78;5099776;28;20043;-48
2022/01/26 09:48:14;;;;;;;16.45;12.68;;;;;;;17.14;41.60;103101.09;5091350;28;20034;-52
2022/01/26 09:50:44;;;;;;;14.18;11.98;;;;;;;17.16;41.41;103119.81;5082147;28;20028;-50
2022/01/26 09:53:12;;;;;;;15.38;12.30;;;;;;;17.16;41.49;103114.44;5095234;28;20030;-52
2022/01/26 09:55:44;;;;;;;15.45;13.35;;;;;;;17.18;41.20;103117.91;5100185;28;20065;-46
2022/01/26 09:58:09;;;;;;;15.25;12.20;;;;;;;17.15;41.27;103101.97;5092773;28;20060;-51
2022/01/26 10:00:35;;;;;;;14.38;11.25;;;;;;;17.07;41.43;103086.34;5096911;28;20047;-52
2022/01/26 10:03:02;;;;;;;13.52;11.52;;;;;;;17.19;41.45;103098.09;5096256;28;20032;-52
2022/01/26 10:05:47;;;;;;;15.27;12.05;;;;;;;17.19;41.28;103117.78;5096164;28;20507;-46
2022/01/26 10:08:27;;;;;;;13.73;11.20;;;;;;;17.19;41.27;103127.69;5096733;28;20028;-47
2022/01/26 10:18:56;;;;;;;14.65;11.60;;;;;;;17.22;40.90;103130.16;5099092;28;20032;-48
2022/01/26 10:21:23;;;;;;;14.88;11.35;;;;;;;17.23;41.05;103126.50;5099037;28;20606;-50
2022/01/26 10:23:48;;;;;;;14.75;12.52;;;;;;;17.24;41.19;103123.69;5100116;28;20070;-46
2022/01/26 10:26:16;;;;;;;13.52;11.40;;;;;;;17.26;41.18;103117.38;5095171;28;20024;-49
2022/01/26 10:29:15;;;;;;;14.50;11.35;;;;;;;17.28;41.06;103123.50;5100376;28;20028;-46
2022/01/26 10:31:41;;;;;;;13.88;11.50;;;;;;;17.28;41.17;103116.28;5029923;28;20035;-49
2022/01/26 10:34:09;;;;;;;13.63;11.35;;;;;;;17.29;41.06;103112.66;5100162;28;20084;-51
2022/01/26 10:36:42;;;;;;;12.77;10.43;;;;;;;17.30;41.04;103114.38;5096459;28;20039;-47
2022/01/26 10:39:31;;;;;;;13.13;10.95;;;;;;;17.32;41.10;103114.25;5096910;28;20047;-46
2022/01/26 10:42:01;;;;;;;14.10;11.00;;;;;;;17.31;41.01;103104.50;5091769;28;20032;-49
2022/01/26 10:44:35;;;;;;;14.63;11.43;;;;;;;17.33;41.01;103114.19;5097899;28;20040;-49
2022/01/26 10:47:03;;;;;;;12.48;10.52;;;;;;;17.34;40.64;103107.84;5101925;28;20080;-51
2022/01/26 10:52:31;;;;;;;12.55;10.45;;;;;;;17.36;40.78;103118.47;5097524;28;20103;-50
2022/01/26 10:54:57;;;;;;;13.20;10.90;;;;;;;17.37;40.84;103112.97;5098006;28;20020;-46
2022/01/26 10:57:24;;;;;;;12.98;10.38;;;;;;;17.34;40.37;103107.84;5079375;28;20487;-45
2022/01/26 10:59:50;;;;;;;13.80;11.32;;;;;;;17.40;40.84;103117.28;5083290;28;20064;-51
2022/01/26 11:02:28;;;;;;;12.18;10.40;;;;;;;17.40;40.88;103110.09;5098864;28;20039;-51
2022/01/26 11:04:54;;;;;;;14.38;10.70;;;;;;;17.40;40.82;103104.72;5098574;28;20048;-47
2022/01/26 11:07:19;;;;;;;13.45;10.95;;;;;;;17.43;40.76;103101.81;5071357;28;20131;-47
2022/01/26 11:09:48;;;;;;;12.65;10.13;;;;;;;17.40;40.63;103080.50;5077860;28;21244;-47
2022/01/26 11:12:16;;;;;;;13.88;11.25;;;;;;;17.46;40.83;103090.84;5102239;28;20108;-50
2022/01/26 11:14:50;;;;;;;14.23;10.57;;;;;;;17.47;40.72;103092.56;5103995;28;20027;-46
2022/01/26 11:17:33;;;;;;;13.10;9.63;;;;;;;17.51;40.70;103095.06;5101784;28;20111;-48
2022/01/26 11:19:59;;;;;;;11.90;9.32;;;;;;;17.52;40.52;103094.09;5103097;28;20020;-48
2022/01/26 11:22:30;;;;;;;12.18;9.88;;;;;;;17.54;40.82;103100.19;5103092;28;20050;-47
2022/01/26 11:25:08;;;;;;;12.50;10.10;;;;;;;17.55;40.64;103089.34;5099413;28;20035;-51
2022/01/26 11:27:34;;;;;;;14.65;9.95;;;;;;;17.58;40.76;103101.72;5101653;28;20039;-45
2022/01/26 11:30:01;;;;;;;12.63;9.77;;;;;;;17.59;40.90;103103.47;5101024;28;20040;-48
2022/01/26 11:32:34;;;;;;;12.38;9.45;;;;;;;17.60;40.53;103103.34;5099135;28;20031;-47
2022/01/26 11:35:04;;;;;;;11.10;9.50;;;;;;;17.62;40.85;103085.25;5093530;28;20051;-50
2022/01/26 11:37:39;;;;;;;12.88;8.75;;;;;;;17.63;40.73;103070.84;5092626;28;20022;-48
2022/01/26 11:45:23;;;;;;;12.68;9.02;;;;;;;17.65;40.65;103073.44;5082140;28;20020;-47
2022/01/26 11:48:01;;;;;;;12.45;8.93;;;;;;;17.71;40.86;103070.28;5096626;28;20055;-45
2022/01/26 11:50:27;;;;;;;12.80;8.50;;;;;;;17.71;40.88;103071.19;5099954;28;20016;-51
2022/01/26 11:52:59;;;;;;;12.27;8.27;;;;;;;17.73;40.96;103065.69;5091388;28;20030;-50
2022/01/26 11:55:36;;;;;;;13.20;8.77;;;;;;;17.75;40.59;103069.13;5083314;28;20052;-50
2022/01/26 11:58:16;;;;;;;12.02;8.57;;;;;;;17.76;40.85;103070.88;5102189;28;20452;-47
2022/01/26 12:01:10;;;;;;;11.38;8.45;;;;;;;17.79;40.77;103067.09;5100586;28;20412;-50
2022/01/26 12:03:44;;;;;;;10.35;7.90;;;;;;;17.76;40.74;103054.75;5093098;28;20043;-50
2022/01/26 12:06:20;;;;;;;10.02;7.63;;;;;;;17.76;40.83;103053.88;5095603;28;20027;-47
2022/01/26 12:08:46;;;;;;;9.52;7.82;;;;;;;17.81;40.96;103065.19;5080743;28;20535;-49
2022/01/26 12:11:13;;;;;;;9.32;7.03;;;;;;;17.84;40.70;103052.38;5101767;28;20032;-45
2022/01/26 12:13:40;;;;;;;10.57;7.72;;;;;;;17.86;40.63;103047.72;5096107;28;20087;-48
2022/01/26 12:16:11;;;;;;;11.00;8.43;;;;;;;17.87;40.70;103046.75;5096579;28;20024;-51
2022/01/26 12:32:44;;;;;;;11.55;7.55;;;;;;;17.96;40.62;103042.53;5036512;28;19932;-40
2022/01/26 12:38:14;;;;;;;10.32;7.65;;;;;;;17.99;40.73;103031.56;5033099;28;20037;-48
2022/01/26 12:43:40;;;;;;;10.15;7.40;;;;;;;18.03;40.64;103040.28;5039344;28;20050;-49
2022/01/26 12:46:07;;;;;;;10.50;7.03;;;;;;;18.04;40.62;103044.66;5039253;28;20030;-49
2022/01/26 12:48:34;;;;;;;10.32;7.03;;;;;;;18.04;40.65;103041.97;5039332;28;20037;-47
2022/01/26 12:51:02;;;;;;;10.40;6.93;;;;;;;18.05;40.76;103044.56;5038754;28;20105;-47
2022/01/26 12:53:29;;;;;;;8.95;6.97;;;;;;;18.07;40.74;103045.31;5038683;28;20048;-46
2022/01/26 12:55:59;;;;;;;8.38;6.28;;;;;;;18.08;40.78;103038.09;5039090;28;20021;-49
2022/01/26 12:58:30;;;;;;;10.35;6.18;;;;;;;18.11;40.66;103035.19;5039461;28;20613;-49
2022/01/26 13:01:05;;;;;;;8.85;6.93;;;;;;;18.13;40.77;103031.41;5022833;28;20101;-43
2022/01/26 13:03:33;;;;;;;9.55;6.30;;;;;;;18.15;40.72;103020.53;5058357;28;20060;-45
2022/01/26 13:06:11;;;;;;;11.23;7.15;;;;;;;18.17;40.70;102997.03;5101064;28;20100;-44
2022/01/26 13:08:45;;;;;;;8.93;6.40;;;;;;;18.19;40.93;103001.34;5097103;28;20036;-45
2022/01/26 13:11:11;;;;;;;8.63;6.70;;;;;;;18.15;40.92;102999.84;5095145;28;20542;-44
2022/01/26 13:13:36;;;;;;;8.90;6.57;;;;;;;18.21;41.11;103004.78;5079797;28;20284;-46
2022/01/26 13:16:14;;;;;;;7.80;6.10;;;;;;;18.25;41.00;103010.78;5101983;28;20032;-43
2022/01/26 13:19:18;;;;;;;9.35;6.63;;;;;;;18.22;41.01;102998.44;5097786;28;20035;-43
2022/01/26 13:26:53;;;;;;;9.57;6.30;;;;;;;18.32;40.92;103000.44;5082543;28;20020;-47
2022/01/26 13:30:16;;;;;;;9.90;6.63;;;;;;;18.33;40.89;103005.72;5092264;28;20544;-43
2022/01/26 13:42:59;;;;;;;8.05;6.10;;;;;;;18.36;40.96;103002.78;5088356;28;20072;-47
2022/01/26 13:45:45;;;;;;;8.60;5.50;;;;;;;18.37;41.03;102999.13;5098186;28;20020;-44
2022/01/26 13:48:29;;;;;;;8.77;5.73;;;;;;;18.37;40.74;103001.81;5097598;28;20115;-44
2022/01/26 13:51:03;;;;;;;9.33;6.10;;;;;;;18.38;40.78;102999.97;5080038;28;20268;-47
2022/01/26 13:53:36;;;;;;;10.93;6.25;;;;;;;18.37;40.98;103001.81;5096294;28;20059;-45
2022/01/26 13:58:42;;;;;;;8.70;6.13;;;;;;;18.38;40.96;102991.91;5101637;28;20024;-50